Time;durP1;ratioP1;P1;durP2;ratioP2;P2;SDS_P1;SDS_P2;PMS_P1;PMS_P2;Temp;Humidity;BMP_temperature;BMP_pressure;BME280_temperature;BME280_humidity;BME280_pressure;Samples;Min_cycle;Max_cycle;Signal;HPM_P1;HPM_P2
2024/01/19 00:01:57;;;;;;;22.93;10.67;;;7.20;99.90;;;5.15;100.00;98437.75;10211959;28;96519;-91
2024/01/19 00:07:00;;;;;;;21.40;10.13;;;7.00;99.90;;;4.91;100.00;98433.47;10225466;28;97340;-92
2024/01/19 00:12:04;;;;;;;19.83;9.87;;;6.70;99.90;;;4.71;100.00;98453.34;10211945;28;96635;-93
2024/01/19 00:17:08;;;;;;;20.33;10.27;;;6.50;99.90;;;4.57;100.00;98455.72;10241873;28;96931;-90
2024/01/19 00:22:12;;;;;;;17.73;9.33;;;6.30;99.90;;;4.41;100.00;98487.38;10209995;28;96596;-90
2024/01/19 00:27:15;;;;;;;21.13;8.20;;;6.20;99.90;;;4.30;100.00;98522.72;10211809;28;97793;-91
2024/01/19 00:32:19;;;;;;;20.33;8.90;;;6.10;99.90;;;4.17;100.00;98526.88;10211651;28;96549;-90
2024/01/19 00:37:22;;;;;;;24.07;9.63;;;6.00;99.90;;;4.13;100.00;98551.84;10209640;28;96671;-91
2024/01/19 00:42:26;;;;;;;19.83;8.90;;;6.00;99.90;;;4.13;100.00;98560.56;10205798;28;96541;-90
2024/01/19 00:47:30;;;;;;;26.17;11.93;;;6.00;99.90;;;3.94;100.00;98572.25;10212129;28;96858;-90
2024/01/19 00:52:34;;;;;;;23.37;11.07;;;5.80;99.90;;;3.58;100.00;98578.81;10234716;28;96534;-89
2024/01/19 00:57:38;;;;;;;23.07;10.80;;;5.60;99.90;;;3.33;100.00;98597.16;10242858;28;98093;-90
2024/01/19 01:02:41;;;;;;;17.43;8.97;;;5.20;99.90;;;3.08;100.00;98603.31;10225786;28;96572;-91
2024/01/19 01:07:45;;;;;;;15.33;8.60;;;5.00;99.90;;;2.77;100.00;98619.59;10237820;28;96524;-90
2024/01/19 01:12:48;;;;;;;18.63;9.73;;;4.70;99.90;;;2.46;100.00;98645.50;10230781;28;96615;-91
2024/01/19 01:17:52;;;;;;;19.40;10.20;;;4.40;99.90;;;2.20;100.00;98655.94;10198117;28;96509;-90
2024/01/19 01:22:56;;;;;;;17.80;9.20;;;4.20;99.90;;;2.06;100.00;98680.06;10230332;28;96516;-91
2024/01/19 01:28:00;;;;;;;19.13;8.97;;;3.90;99.90;;;1.81;100.00;98698.19;10219486;28;96631;-90
2024/01/19 01:33:04;;;;;;;18.27;9.43;;;3.80;99.90;;;1.65;100.00;98700.63;10206999;28;96527;-91
2024/01/19 01:38:08;;;;;;;22.67;10.93;;;3.60;99.90;;;1.40;100.00;98712.63;10202883;28;96504;-91
2024/01/19 01:43:23;;;;;;;22.07;10.43;;;3.40;99.90;;;1.27;100.00;98722.63;10215478;28;97991;-90
2024/01/19 01:48:27;;;;;;;24.73;11.07;;;3.20;99.90;;;1.17;100.00;98734.91;10218781;28;96522;-90
2024/01/19 01:53:32;;;;;;;23.00;10.53;;;3.10;99.90;;;0.99;100.00;98727.00;10214120;28;98469;-90
2024/01/19 01:58:35;;;;;;;21.20;9.57;;;3.00;99.90;;;0.90;100.00;98733.91;10229271;28;97549;-91
2024/01/19 02:03:40;;;;;;;21.50;10.97;;;2.80;99.90;;;0.87;100.00;98754.28;10207540;28;96830;-91
2024/01/19 02:08:44;;;;;;;20.03;10.30;;;2.80;99.90;;;0.80;100.00;98764.47;10214637;28;96478;-91
2024/01/19 02:13:47;;;;;;;22.27;9.97;;;2.70;99.90;;;0.76;100.00;98789.25;10229518;28;96643;-91
2024/01/19 02:18:54;;;;;;;24.77;9.87;;;2.70;99.90;;;0.72;100.00;98793.97;10234764;28;98065;-91
2024/01/19 02:24:02;;;;;;;17.67;9.50;;;2.60;99.90;;;0.65;100.00;98797.25;10242537;28;96589;-92
2024/01/19 02:29:06;;;;;;;20.97;9.63;;;2.60;99.90;;;0.59;100.00;98814.31;10222024;28;97393;-91
2024/01/19 02:34:09;;;;;;;21.97;10.40;;;2.50;99.90;;;0.51;100.00;98819.41;10234239;28;96732;-92
2024/01/19 02:39:13;;;;;;;21.10;9.67;;;2.50;99.90;;;0.42;100.00;98817.59;10237389;28;96668;-91
2024/01/19 02:44:17;;;;;;;19.87;9.80;;;2.40;99.90;;;0.45;100.00;98830.41;10242000;28;96476;-91
2024/01/19 02:49:21;;;;;;;20.83;9.30;;;2.40;99.90;;;0.34;100.00;98820.09;10225617;28;96628;-92
2024/01/19 02:54:24;;;;;;;22.27;10.17;;;2.40;99.90;;;0.38;100.00;98840.59;10217438;28;96616;-91
2024/01/19 02:59:29;;;;;;;25.53;10.37;;;2.40;99.90;;;0.40;100.00;98851.72;10216961;28;96504;-91
2024/01/19 03:04:32;;;;;;;21.77;10.03;;;2.40;99.90;;;0.46;100.00;98882.53;10275610;28;96847;-90
2024/01/19 03:09:36;;;;;;;20.73;8.60;;;2.40;99.90;;;0.48;100.00;98903.31;10183554;28;97677;-90
2024/01/19 03:14:43;;;;;;;20.57;9.33;;;2.40;99.90;;;0.48;100.00;98911.16;10181956;28;97448;-91
2024/01/19 03:19:47;;;;;;;18.83;7.87;;;2.40;99.90;;;0.49;100.00;98915.44;10213872;28;96439;-90
2024/01/19 03:24:50;;;;;;;18.47;8.77;;;2.40;99.90;;;0.46;100.00;98924.34;10212129;28;97617;-90
2024/01/19 03:29:56;;;;;;;19.37;9.17;;;2.40;99.90;;;0.43;100.00;98937.72;10210887;28;96470;-90
2024/01/19 03:34:59;;;;;;;26.10;12.23;;;2.40;99.90;;;0.43;100.00;98956.00;10210451;28;96614;-91
2024/01/19 03:40:06;;;;;;;18.30;8.43;;;2.40;99.90;;;0.43;100.00;98965.63;10212087;28;96840;-90
2024/01/19 03:45:10;;;;;;;15.17;7.40;;;2.40;99.90;;;0.43;100.00;98976.09;10211484;28;96751;-91
2024/01/19 03:50:14;;;;;;;17.43;8.87;;;2.40;99.90;;;0.44;100.00;98957.66;10228579;28;96536;-91
2024/01/19 03:55:18;;;;;;;14.13;6.83;;;2.40;99.90;;;0.49;100.00;98955.47;10214776;28;97113;-90
2024/01/19 04:00:21;;;;;;;13.43;6.03;;;2.40;99.90;;;0.55;100.00;98948.88;10175816;28;96540;-90
2024/01/19 04:05:25;;;;;;;12.53;5.73;;;2.50;99.90;;;0.57;100.00;98948.75;10211554;28;96493;-90
2024/01/19 04:10:29;;;;;;;15.33;6.90;;;2.60;99.90;;;0.62;100.00;98955.22;10211802;28;96561;-91
2024/01/19 04:15:32;;;;;;;13.80;6.40;;;2.50;99.90;;;0.64;100.00;98948.06;10212084;28;96571;-90
2024/01/19 04:20:36;;;;;;;14.77;6.37;;;2.50;99.90;;;0.53;100.00;98930.69;10208544;28;96778;-90
2024/01/19 04:25:40;;;;;;;13.53;6.50;;;2.50;99.90;;;0.59;100.00;98942.41;10202400;28;96423;-89
2024/01/19 04:30:43;;;;;;;14.37;6.67;;;2.50;99.90;;;0.58;100.00;98942.53;10180490;28;96568;-90
2024/01/19 04:35:47;;;;;;;11.10;5.53;;;2.50;99.90;;;0.53;100.00;98964.69;10208079;28;96614;-92
2024/01/19 04:40:51;;;;;;;13.43;5.67;;;2.50;99.90;;;0.53;100.00;98961.25;10209797;28;96598;-92
2024/01/19 04:45:55;;;;;;;12.33;5.60;;;2.50;99.90;;;0.48;100.00;98973.88;10244662;28;96516;-90
2024/01/19 04:50:58;;;;;;;11.67;5.03;;;2.40;99.90;;;0.47;100.00;98990.53;10225589;28;96729;-91
2024/01/19 04:56:09;;;;;;;15.40;6.70;;;2.40;99.90;;;0.41;100.00;98991.06;10211660;28;96875;-91
2024/01/19 05:01:17;;;;;;;12.80;5.97;;;2.40;99.90;;;0.40;100.00;98999.88;10208277;28;96616;-93
2024/01/19 05:06:21;;;;;;;14.00;6.43;;;2.40;99.90;;;0.32;100.00;98979.63;10221828;28;97437;-92
2024/01/19 05:11:27;;;;;;;14.93;6.57;;;2.30;99.90;;;0.42;100.00;98995.31;10221021;28;96461;-91
2024/01/19 05:16:32;;;;;;;15.57;6.20;;;2.30;99.90;;;0.39;100.00;99006.06;10213401;28;97498;-91
2024/01/19 05:21:36;;;;;;;13.63;6.10;;;2.30;99.90;;;0.35;100.00;99009.88;10225155;28;96936;-91
2024/01/19 05:26:39;;;;;;;14.53;6.43;;;2.30;99.90;;;0.31;100.00;98998.06;10183672;28;96395;-90
2024/01/19 05:31:43;;;;;;;13.20;5.60;;;2.30;99.90;;;0.33;100.00;99027.50;10199185;28;97071;-90
2024/01/19 05:36:46;;;;;;;12.53;5.90;;;2.30;99.90;;;0.32;100.00;99067.66;10185325;28;96622;-88
2024/01/19 05:41:53;;;;;;;16.03;6.57;;;2.30;99.90;;;0.25;100.00;99070.78;10207879;28;96524;-88
2024/01/19 05:46:56;;;;;;;16.47;5.50;;;2.30;99.90;;;0.28;100.00;99081.94;10233921;28;96525;-87
2024/01/19 05:52:00;;;;;;;14.43;5.83;;;2.30;99.90;;;0.31;100.00;99103.41;10225419;28;97002;-88
2024/01/19 05:57:04;;;;;;;16.57;6.03;;;2.30;99.90;;;0.34;100.00;99124.03;10213704;28;96629;-87
2024/01/19 06:02:08;;;;;;;13.27;5.70;;;2.40;99.90;;;0.41;100.00;99134.81;10243757;28;98167;-88
2024/01/19 06:07:12;;;;;;;14.83;5.40;;;2.40;99.90;;;0.43;100.00;99128.50;10229331;28;96580;-88
2024/01/19 06:12:16;;;;;;;13.17;4.73;;;2.50;99.90;;;0.43;100.00;99118.06;10213553;28;96618;-88
2024/01/19 06:17:19;;;;;;;14.80;5.83;;;2.50;99.90;;;0.46;100.00;99130.03;10230390;28;96451;-88
2024/01/19 06:22:24;;;;;;;11.43;5.43;;;2.50;99.90;;;0.39;100.00;99121.88;10228899;28;96756;-88
2024/01/19 06:27:29;;;;;;;14.33;6.03;;;2.40;99.90;;;0.40;100.00;99120.91;10196870;28;96854;-87
2024/01/19 06:32:33;;;;;;;15.93;6.20;;;2.40;99.90;;;0.29;100.00;99120.16;10213866;28;96949;-87
2024/01/19 06:37:39;;;;;;;15.97;6.40;;;2.40;99.90;;;0.37;100.00;99149.09;10189805;28;96548;-87
2024/01/19 06:42:46;;;;;;;12.13;5.57;;;2.40;99.90;;;0.35;100.00;99169.28;10212413;28;96562;-87
2024/01/19 06:47:49;;;;;;;9.50;4.70;;;2.40;99.90;;;0.39;100.00;99194.22;10239007;28;96573;-88
2024/01/19 06:52:53;;;;;;;13.03;4.77;;;2.40;99.90;;;0.36;100.00;99192.72;10213399;28;96494;-87
2024/01/19 06:57:58;;;;;;;13.03;5.37;;;2.40;99.90;;;0.31;100.00;99201.88;10213309;28;96937;-87
2024/01/19 07:03:02;;;;;;;10.07;4.67;;;2.40;99.90;;;0.39;100.00;99233.44;10207272;28;96618;-87
2024/01/19 07:08:06;;;;;;;7.50;3.77;;;2.40;99.90;;;0.37;100.00;99237.97;10206236;28;96606;-88
2024/01/19 07:13:10;;;;;;;11.03;5.17;;;2.40;99.90;;;0.41;100.00;99247.19;10204421;28;98718;-88
2024/01/19 07:18:14;;;;;;;11.67;5.33;;;2.50;99.90;;;0.50;100.00;99283.88;10209748;28;97961;-87
2024/01/19 07:23:21;;;;;;;10.00;5.10;;;2.50;99.90;;;0.48;100.00;99293.63;10210736;28;97706;-88
2024/01/19 07:28:27;;;;;;;8.13;4.50;;;2.50;99.90;;;0.51;100.00;99292.53;10225443;28;97918;-87
2024/01/19 07:33:31;;;;;;;12.03;4.23;;;2.50;99.90;;;0.46;100.00;99305.97;10209523;28;97356;-87
2024/01/19 07:38:36;;;;;;;8.77;4.00;;;2.50;99.90;;;0.43;100.00;99297.56;10214373;28;96796;-88
2024/01/19 07:43:39;;;;;;;11.50;4.63;;;2.50;99.90;;;0.42;100.00;99316.78;10220089;28;96916;-88
2024/01/19 07:48:44;;;;;;;10.50;4.10;;;2.40;99.90;;;0.37;100.00;99325.03;10227342;28;96861;-88
2024/01/19 07:53:47;;;;;;;16.53;5.67;;;2.40;99.90;;;0.32;100.00;99328.97;10216625;28;96951;-88
2024/01/19 07:58:51;;;;;;;14.30;5.70;;;2.30;99.90;;;0.24;100.00;99353.94;10230085;28;96660;-88
2024/01/19 08:03:55;;;;;;;10.93;4.80;;;2.30;99.90;;;0.17;100.00;99354.53;10208201;28;96777;-88
2024/01/19 08:08:58;;;;;;;8.30;3.63;;;2.20;99.90;;;0.10;100.00;99358.59;10207871;28;96638;-88
2024/01/19 08:14:02;;;;;;;10.10;4.23;;;2.10;99.90;;;0.01;100.00;99356.72;10224429;28;96625;-88
2024/01/19 08:19:06;;;;;;;8.60;4.00;;;2.00;99.90;;;-0.04;100.00;99344.84;10216022;28;97605;-88
2024/01/19 08:24:09;;;;;;;8.17;3.90;;;2.00;99.90;;;-0.01;100.00;99330.72;10207975;28;97014;-88
2024/01/19 08:29:13;;;;;;;7.63;3.40;;;2.00;99.90;;;0.08;100.00;99339.59;10222282;28;96696;-87
2024/01/19 08:34:16;;;;;;;8.97;3.33;;;2.10;99.90;;;0.13;100.00;99335.69;10207736;28;96512;-88
2024/01/19 08:39:20;;;;;;;12.40;3.53;;;2.10;99.90;;;0.22;100.00;99350.59;10204936;28;96778;-88
2024/01/19 08:44:23;;;;;;;7.13;3.43;;;2.20;99.90;;;0.38;100.00;99386.81;10232854;28;97163;-88
2024/01/19 08:49:27;;;;;;;9.20;3.63;;;2.40;99.90;;;0.47;100.00;99419.19;10191866;28;96509;-88
2024/01/19 08:54:31;;;;;;;10.03;4.13;;;2.50;99.90;;;0.36;100.00;99429.69;10222242;28;96842;-88
2024/01/19 08:59:34;;;;;;;7.90;3.70;;;2.40;99.90;;;0.26;100.00;99446.09;10236798;28;97107;-89
2024/01/19 09:04:38;;;;;;;11.00;4.37;;;2.30;99.90;;;0.17;100.00;99448.59;10228020;28;96575;-88
2024/01/19 09:09:42;;;;;;;8.73;3.30;;;2.20;99.90;;;0.13;100.00;99450.63;10207809;28;96619;-88
2024/01/19 09:14:46;;;;;;;13.03;4.23;;;2.20;99.90;;;0.09;100.00;99449.19;10209942;28;96920;-87
2024/01/19 09:19:50;;;;;;;7.77;3.40;;;2.10;99.90;;;0.08;100.00;99471.06;10206467;28;97804;-88
2024/01/19 09:24:53;;;;;;;14.50;4.40;;;2.10;99.90;;;0.10;100.00;99482.22;10219262;28;98049;-88
2024/01/19 09:29:57;;;;;;;9.50;4.80;;;2.20;99.90;;;0.14;100.00;99493.25;10212758;28;96648;-88
2024/01/19 09:35:00;;;;;;;10.47;4.07;;;2.20;99.90;;;0.17;100.00;99490.41;10235248;28;97577;-87
2024/01/19 09:40:04;;;;;;;13.87;4.43;;;2.30;99.90;;;0.15;100.00;99508.00;10229853;28;96659;-87
2024/01/19 09:45:17;;;;;;;17.40;7.20;;;2.20;99.90;;;0.11;100.00;99522.22;10228312;28;98120;-87
2024/01/19 09:50:26;;;;;;;13.77;5.40;;;2.20;99.90;;;-0.06;100.00;99510.44;10215636;28;96507;-86
2024/01/19 09:55:31;;;;;;;9.83;4.77;;;2.00;99.90;;;-0.24;100.00;99549.25;10207417;28;96549;-87
2024/01/19 10:00:34;;;;;;;12.77;5.57;;;1.80;99.90;;;-0.35;100.00;99546.63;10229353;28;97136;-87
2024/01/19 10:05:39;;;;;;;11.10;4.90;;;1.70;99.90;;;-0.47;100.00;99542.31;10213369;28;96535;-87
2024/01/19 10:10:44;;;;;;;8.43;4.20;;;1.60;99.90;;;-0.58;100.00;99553.53;10243095;28;96616;-87
2024/01/19 10:15:47;;;;;;;12.80;6.53;;;1.40;99.90;;;-0.65;100.00;99561.00;10210699;28;96605;-88
2024/01/19 10:20:51;;;;;;;10.57;4.93;;;1.40;99.90;;;-0.70;100.00;99557.03;10244640;28;96587;-87
2024/01/19 10:26:15;;;;;;;12.87;6.20;;;1.30;99.90;;;-0.73;100.00;99549.44;10224127;28;97695;-88
2024/01/19 10:31:22;;;;;;;11.97;4.73;;;1.20;99.90;;;-0.79;100.00;99557.69;10213061;28;96543;-88
2024/01/19 10:36:36;;;;;;;15.40;6.47;;;1.20;99.90;;;-0.78;100.00;99572.41;10201683;28;96571;-88
2024/01/19 10:41:39;;;;;;;17.83;7.00;;;1.20;99.90;;;-0.82;100.00;99598.72;10212140;28;98036;-87
2024/01/19 10:46:44;;;;;;;19.30;7.40;;;1.20;99.90;;;-0.79;100.00;99612.47;10213593;28;96659;-87
2024/01/19 10:51:49;;;;;;;19.33;7.33;;;1.20;99.90;;;-0.79;100.00;99628.97;10196827;28;96508;-88
2024/01/19 10:57:05;;;;;;;14.33;6.50;;;1.20;99.90;;;-0.78;100.00;99645.44;10227834;28;96650;-87
2024/01/19 11:02:09;;;;;;;13.60;5.33;;;1.20;99.90;;;-0.83;100.00;99672.72;10212337;28;96588;-88
2024/01/19 11:07:13;;;;;;;13.43;5.70;;;1.20;99.90;;;-0.92;100.00;99690.78;10227210;28;96558;-88
2024/01/19 11:12:18;;;;;;;10.80;5.73;;;1.10;99.90;;;-0.96;100.00;99694.53;10196270;28;96585;-88
2024/01/19 11:17:22;;;;;;;18.83;8.90;;;1.10;99.90;;;-0.95;100.00;99710.09;10212054;28;96564;-88
2024/01/19 11:22:26;;;;;;;11.33;5.80;;;1.10;99.90;;;-0.93;100.00;99709.97;10226073;28;97177;-88
2024/01/19 11:27:39;;;;;;;17.03;6.63;;;1.10;99.90;;;-0.87;100.00;99718.22;10208423;28;96516;-89
2024/01/19 11:32:42;;;;;;;13.83;6.67;;;1.10;99.90;;;-0.78;100.00;99723.72;10223868;28;96525;-89
2024/01/19 11:37:46;;;;;;;13.33;5.50;;;1.20;99.90;;;-0.73;100.00;99724.25;10227957;28;97100;-88
2024/01/19 11:42:51;;;;;;;15.37;6.93;;;1.20;99.90;;;-0.71;100.00;99722.38;10217150;28;97292;-87
2024/01/19 11:47:55;;;;;;;33.40;11.40;;;1.30;99.90;;;-0.64;100.00;99727.03;10216800;28;96593;-87
2024/01/19 11:53:00;;;;;;;23.97;8.87;;;1.40;99.90;;;-0.57;100.00;99730.06;10226629;28;96419;-87
2024/01/19 11:58:30;;;;;;;61.80;16.47;;;1.50;99.90;;;-0.52;100.00;99741.00;10212236;28;96730;-87
2024/01/19 12:03:34;;;;;;;24.80;9.80;;;1.50;99.90;;;-0.51;100.00;99736.63;10234081;28;96672;-87
2024/01/19 12:08:40;;;;;;;22.73;9.00;;;1.60;99.90;;;-0.45;100.00;99749.22;10238420;28;96510;-87
2024/01/19 12:13:48;;;;;;;21.03;9.20;;;1.60;99.90;;;-0.42;100.00;99741.16;10208550;28;96503;-87
2024/01/19 12:19:04;;;;;;;39.03;12.90;;;1.70;99.90;;;-0.33;100.00;99764.84;10245147;28;96797;-87
2024/01/19 12:24:08;;;;;;;27.60;10.90;;;1.80;99.90;;;-0.22;100.00;99761.47;10213677;28;96658;-88
2024/01/19 12:29:31;;;;;;;24.43;10.47;;;1.90;99.90;;;-0.15;100.00;99767.09;10211447;28;96569;-88
2024/01/19 12:34:35;;;;;;;24.70;9.27;;;2.00;99.90;;;-0.10;100.00;99778.88;10238235;28;96553;-88
2024/01/19 12:39:39;;;;;;;40.03;14.73;;;2.10;99.90;;;-0.01;100.00;99774.75;10209712;28;96396;-88
2024/01/19 12:44:42;;;;;;;46.03;15.33;;;2.10;99.90;;;0.04;100.00;99767.44;10209903;28;97223;-88
2024/01/19 12:49:47;;;;;;;19.97;9.07;;;2.20;99.90;;;0.10;100.00;99794.88;10209304;28;97916;-87
2024/01/19 12:54:51;;;;;;;20.13;8.50;;;2.30;99.90;;;0.11;100.00;99800.00;10216606;28;98871;-87
2024/01/19 13:00:15;;;;;;;19.83;7.77;;;2.30;99.90;;;0.14;100.00;99833.75;10208173;28;96511;-87
2024/01/19 13:05:28;;;;;;;16.53;7.33;;;2.20;99.90;;;0.15;100.00;99831.97;10183813;28;96772;-87
2024/01/19 13:10:33;;;;;;;17.03;7.50;;;2.20;99.90;;;0.15;100.00;99827.59;10216413;28;96451;-86
2024/01/19 13:15:37;;;;;;;21.40;9.07;;;2.20;99.90;;;0.21;100.00;99839.38;10214048;28;97010;-87
2024/01/19 13:20:42;;;;;;;14.00;5.90;;;2.30;99.90;;;0.21;100.00;99849.81;10199468;28;96427;-86
2024/01/19 13:25:54;;;;;;;14.47;6.67;;;2.30;99.90;;;0.19;100.00;99862.19;10193779;28;96528;-86
2024/01/19 13:30:58;;;;;;;12.93;5.73;;;2.30;99.90;;;0.16;100.00;99867.59;10205936;28;96742;-86
2024/01/19 13:36:02;;;;;;;13.97;5.83;;;2.30;99.90;;;0.19;100.00;99891.75;10238393;28;96590;-86
2024/01/19 13:41:09;;;;;;;21.30;8.33;;;2.20;99.90;;;0.23;100.00;99884.50;10217073;28;97610;-86
2024/01/19 13:46:14;;;;;;;17.10;7.87;;;2.30;99.90;;;0.25;100.00;99888.69;10215206;28;96449;-86
2024/01/19 13:51:18;;;;;;;11.33;5.53;;;2.30;99.90;;;0.31;100.00;99902.28;10232420;28;96561;-86
2024/01/19 13:56:21;;;;;;;24.93;10.80;;;2.30;99.90;;;0.36;100.00;99911.47;10220255;28;96488;-86
2024/01/19 14:01:25;;;;;;;19.87;8.93;;;2.40;99.90;;;0.46;100.00;99929.91;10245183;28;96714;-85
2024/01/19 14:06:29;;;;;;;14.70;6.77;;;2.50;99.90;;;0.52;100.00;99932.09;10233989;28;96506;-86
2024/01/19 14:11:33;;;;;;;22.30;10.30;;;2.60;99.90;;;0.51;100.00;99938.28;10206733;28;96456;-85
2024/01/19 14:16:36;;;;;;;35.43;12.07;;;2.60;99.90;;;0.50;100.00;99952.28;10207630;28;96712;-85
2024/01/19 14:21:41;;;;;;;51.13;16.10;;;2.60;99.90;;;0.47;100.00;99955.94;10190794;28;97718;-85
2024/01/19 14:26:45;;;;;;;49.97;19.40;;;2.70;99.90;;;0.40;100.00;99975.63;10214509;28;96665;-86
2024/01/19 14:31:49;;;;;;;44.57;19.00;;;2.60;99.90;;;0.35;100.00;99993.41;10227365;28;96929;-86
2024/01/19 14:36:52;;;;;;;27.73;12.60;;;2.50;99.90;;;0.32;100.00;99998.88;10228386;28;98148;-86
2024/01/19 14:41:56;;;;;;;21.10;9.93;;;2.50;99.90;;;0.28;100.00;100012.25;10229689;28;96703;-86
2024/01/19 14:47:01;;;;;;;21.33;8.90;;;2.40;99.90;;;0.18;100.00;100030.34;10241008;28;96709;-86
2024/01/19 14:52:05;;;;;;;15.17;7.07;;;2.30;99.90;;;0.04;100.00;100041.75;10242271;28;96650;-86
2024/01/19 14:57:10;;;;;;;14.07;6.77;;;2.20;99.90;;;-0.12;100.00;100060.25;10211936;28;96604;-86
2024/01/19 15:02:13;;;;;;;19.17;6.83;;;2.10;99.90;;;-0.19;100.00;100063.34;10234344;28;96589;-86
2024/01/19 15:07:19;;;;;;;13.63;5.70;;;2.00;99.90;;;-0.30;100.00;100080.59;10214172;28;96623;-86
2024/01/19 15:12:23;;;;;;;14.93;6.30;;;1.90;99.90;;;-0.39;100.00;100081.19;10227440;28;98011;-86
2024/01/19 15:17:27;;;;;;;16.30;6.20;;;1.80;99.90;;;-0.48;100.00;100071.38;10227323;28;96759;-86
2024/01/19 15:22:33;;;;;;;10.13;4.97;;;1.70;99.90;;;-0.52;100.00;100082.94;10203445;28;96682;-86
2024/01/19 15:27:38;;;;;;;10.13;4.23;;;1.60;99.90;;;-0.63;100.00;100114.94;10204730;28;96766;-85
2024/01/19 15:32:41;;;;;;;13.70;5.17;;;1.50;99.90;;;-0.64;100.00;100128.09;10227431;28;96541;-86
2024/01/19 15:37:45;;;;;;;9.57;3.93;;;1.50;99.90;;;-0.66;97.27;100135.16;10213273;28;96976;-85
2024/01/19 15:42:49;;;;;;;9.13;4.40;;;1.40;99.90;;;-0.67;96.23;100144.78;10215003;28;96625;-85
2024/01/19 15:47:52;;;;;;;10.93;3.30;;;1.40;99.90;;;-0.63;87.50;100150.66;10227980;28;96484;-85
2024/01/19 15:52:59;;;;;;;5.93;2.97;;;1.40;99.90;;;-0.60;88.00;100168.72;10201066;28;96527;-85
2024/01/19 15:58:03;;;;;;;6.20;2.77;;;1.40;99.90;;;-0.60;85.59;100176.53;10207779;28;96592;-86
2024/01/19 16:03:07;;;;;;;8.80;3.73;;;1.40;99.90;;;-0.56;84.54;100183.25;10206773;28;98066;-86
2024/01/19 16:08:11;;;;;;;5.87;2.70;;;1.40;99.90;;;-0.58;85.66;100195.56;10227729;28;97799;-86
2024/01/19 16:13:14;;;;;;;7.90;2.70;;;1.50;99.90;;;-0.59;79.65;100213.00;10207207;28;96980;-86
2024/01/19 16:18:18;;;;;;;6.70;3.30;;;1.40;99.90;;;-0.50;76.74;100214.19;10215194;28;96681;-86
2024/01/19 16:23:22;;;;;;;8.53;4.50;;;1.50;99.90;;;-0.39;72.29;100244.84;10221214;28;96523;-86
2024/01/19 16:28:25;;;;;;;16.23;5.83;;;1.60;99.90;;;-0.40;73.93;100248.38;10249708;28;97834;-86
2024/01/19 16:33:29;;;;;;;9.57;3.63;;;1.60;99.90;;;-0.46;75.15;100248.78;10247412;28;96793;-86
2024/01/19 16:38:33;;;;;;;12.07;4.80;;;1.60;99.90;;;-0.47;74.38;100268.81;10225403;28;96684;-86
2024/01/19 16:43:38;;;;;;;10.77;4.80;;;1.60;99.90;;;-0.45;72.57;100264.34;10223634;28;96663;-86
2024/01/19 16:48:43;;;;;;;10.87;4.13;;;1.60;99.40;;;-0.48;74.00;100248.88;10236094;28;96838;-87
2024/01/19 16:53:47;;;;;;;9.67;4.63;;;1.50;99.40;;;-0.48;72.50;100269.78;10206216;28;97944;-87
2024/01/19 16:58:51;;;;;;;14.67;6.63;;;1.50;99.00;;;-0.55;74.29;100277.13;10253196;28;98004;-87
2024/01/19 17:03:54;;;;;;;12.43;5.53;;;1.50;99.00;;;-0.58;75.58;100284.31;10224236;28;96536;-87
2024/01/19 17:08:59;;;;;;;6.10;3.07;;;1.40;99.00;;;-0.62;73.90;100294.09;10209665;28;96811;-87
2024/01/19 17:14:06;;;;;;;6.53;3.13;;;1.40;98.20;;;-0.55;73.85;100311.06;10213573;28;96793;-87
2024/01/19 17:19:11;;;;;;;10.77;4.10;;;1.40;98.40;;;-0.59;74.69;100313.97;10230899;28;96483;-87
2024/01/19 17:24:15;;;;;;;11.73;3.43;;;1.40;98.40;;;-0.67;76.46;100318.78;10239582;28;96507;-88
2024/01/19 17:29:19;;;;;;;5.43;2.63;;;1.30;98.60;;;-0.65;74.66;100340.44;10209218;28;96558;-87
2024/01/19 17:34:23;;;;;;;8.73;2.60;;;1.30;98.30;;;-0.64;75.29;100342.13;10219036;28;96597;-87
2024/01/19 17:39:26;;;;;;;4.63;2.67;;;1.30;98.30;;;-0.63;76.40;100354.22;10183502;28;97940;-88
2024/01/19 17:44:33;;;;;;;8.13;3.10;;;1.40;98.30;;;-0.66;75.77;100360.47;10195777;28;98426;-88
2024/01/19 17:49:37;;;;;;;8.80;2.90;;;1.30;98.40;;;-0.69;78.03;100370.25;10196211;28;96748;-88
2024/01/19 17:54:40;;;;;;;9.40;2.90;;;1.30;98.50;;;-0.71;76.77;100383.41;10245311;28;97941;-87
2024/01/19 17:59:44;;;;;;;11.33;3.40;;;1.30;98.60;;;-0.75;78.98;100391.50;10221194;28;96639;-88
2024/01/19 18:04:48;;;;;;;9.90;3.20;;;1.30;98.60;;;-0.77;78.50;100409.03;10217581;28;96678;-87
2024/01/19 18:09:52;;;;;;;9.23;2.67;;;1.30;98.50;;;-0.78;79.10;100431.66;10229873;28;96958;-88
2024/01/19 18:14:55;;;;;;;5.87;2.20;;;1.30;98.40;;;-0.72;77.43;100446.97;10231011;28;96965;-88
2024/01/19 18:19:59;;;;;;;8.30;3.23;;;1.30;98.30;;;-0.67;77.09;100467.56;10221185;28;96990;-88
2024/01/19 18:25:05;;;;;;;9.10;2.67;;;1.40;98.00;;;-0.68;77.15;100469.31;10202650;28;98220;-88
2024/01/19 18:30:10;;;;;;;6.27;2.80;;;1.40;98.00;;;-0.63;75.42;100479.50;10237205;28;96701;-88
2024/01/19 18:35:14;;;;;;;8.70;2.20;;;1.40;97.80;;;-0.70;76.10;100480.81;10231650;28;96560;-88
2024/01/19 18:40:19;;;;;;;5.90;2.00;;;1.40;97.70;;;-0.75;75.58;100475.00;10254620;28;96903;-88
2024/01/19 18:45:23;;;;;;;6.73;2.43;;;1.30;97.40;;;-0.86;76.20;100492.09;10238223;28;99995;-88
2024/01/19 18:50:26;;;;;;;4.93;2.17;;;1.20;97.70;;;-0.95;77.12;100500.47;10223879;28;97472;-88
2024/01/19 18:55:31;;;;;;;8.53;3.27;;;1.10;97.60;;;-1.07;78.21;100490.75;10212697;28;98409;-88
2024/01/19 19:00:38;;;;;;;7.70;3.17;;;1.00;97.60;;;-1.16;78.62;100493.84;10226192;28;98525;-88
2024/01/19 19:05:41;;;;;;;8.57;2.90;;;0.90;97.80;;;-1.23;77.64;100506.41;10227138;28;96737;-87
2024/01/19 19:10:46;;;;;;;14.73;4.73;;;0.80;97.40;;;-1.24;77.15;100509.94;10243450;28;96638;-88
2024/01/19 19:15:49;;;;;;;8.60;3.03;;;0.80;97.40;;;-1.26;78.12;100513.53;10218692;28;96625;-89
2024/01/19 19:20:53;;;;;;;8.17;2.50;;;0.80;97.50;;;-1.29;78.43;100521.53;10185694;28;96603;-88
2024/01/19 19:25:59;;;;;;;7.60;3.03;;;0.70;97.80;;;-1.32;80.76;100527.75;10228837;28;97190;-88
2024/01/19 19:31:03;;;;;;;10.37;2.20;;;0.70;98.10;;;-1.38;81.12;100533.28;10203889;28;96693;-88
2024/01/19 19:36:08;;;;;;;9.17;2.83;;;0.70;98.30;;;-1.45;82.11;100544.97;10248681;28;96681;-89
2024/01/19 19:41:12;;;;;;;4.50;2.53;;;0.60;98.50;;;-1.48;83.12;100553.81;10251730;28;98052;-89
2024/01/19 19:46:19;;;;;;;7.57;2.70;;;0.50;98.60;;;-1.45;80.52;100553.66;10231073;28;96538;-89
2024/01/19 19:51:27;;;;;;;6.50;2.43;;;0.60;98.30;;;-1.44;80.28;100571.00;10229045;28;97058;-89
2024/01/19 19:56:31;;;;;;;6.03;1.93;;;0.60;98.20;;;-1.52;80.12;100569.69;10213429;28;97576;-89
2024/01/19 20:01:49;;;;;;;6.50;2.80;;;0.60;98.00;;;-1.60;81.28;100580.53;10204931;28;98522;-89
2024/01/19 20:06:58;;;;;;;6.43;2.60;;;0.50;98.30;;;-1.77;83.71;100581.44;10219902;28;98190;-88
2024/01/19 20:12:07;;;;;;;3.80;1.83;;;0.30;98.60;;;-1.87;83.32;100608.88;10193968;28;98586;-89
2024/01/19 20:17:13;;;;;;;5.77;2.23;;;0.20;98.50;;;-1.92;84.32;100610.84;10195306;28;96883;-89
2024/01/19 20:22:17;;;;;;;5.90;2.07;;;0.20;98.70;;;-1.98;82.82;100613.78;10247218;28;96731;-89
2024/01/19 20:27:22;;;;;;;6.63;2.47;;;0.10;98.50;;;-2.03;84.98;100621.00;10219611;28;96584;-88
2024/01/19 20:32:28;;;;;;;5.93;1.83;;;0.10;98.80;;;-1.98;84.06;100640.69;10244787;28;96660;-89
2024/01/19 20:37:32;;;;;;;6.67;1.93;;;0.10;98.60;;;-1.85;82.31;100660.91;10224348;28;96540;-89
2024/01/19 20:42:36;;;;;;;3.70;1.50;;;0.20;98.50;;;-1.81;83.93;100659.81;10209407;28;99593;-88
2024/01/19 20:47:40;;;;;;;3.40;1.90;;;0.30;98.70;;;-1.86;86.61;100664.41;10215591;28;96571;-89
2024/01/19 20:52:46;;;;;;;9.13;2.57;;;0.30;99.00;;;-1.96;89.08;100687.47;10212784;28;96700;-89
2024/01/19 20:57:49;;;;;;;7.23;2.33;;;0.20;99.80;;;-2.13;90.42;100688.31;10238856;28;97715;-87
2024/01/19 21:02:53;;;;;;;20.53;4.50;;;0.10;99.70;;;-2.30;93.92;100698.69;10231308;28;98273;-88